Time;durP1;ratioP1;P1;durP2;ratioP2;P2;SDS_P1;SDS_P2;PMS_P1;PMS_P2;Temp;Humidity;BMP_temperature;BMP_pressure;BME280_temperature;BME280_humidity;BME280_pressure;Samples;Min_cycle;Max_cycle;Signal;HPM_P1;HPM_P2
2024/04/21 00:02:02;;;;;;;0.50;0.20;;;5.40;99.90;;;;;;5558924;25;20463;-75
2024/04/21 00:04:33;;;;;;;0.40;0.20;;;5.40;99.90;;;;;;5568634;25;21022;-75
2024/04/21 00:07:01;;;;;;;0.30;0.20;;;5.50;99.90;;;;;;5560926;25;20455;-75
2024/04/21 00:09:31;;;;;;;0.37;0.20;;;5.70;99.90;;;;;;5566133;25;20455;-75
2024/04/21 00:11:57;;;;;;;0.40;0.10;;;5.50;99.90;;;;;;5565412;25;21128;-75
2024/04/21 00:14:26;;;;;;;0.30;0.20;;;5.50;99.90;;;;;;5565578;25;20479;-75
2024/04/21 00:16:55;;;;;;;0.30;0.13;;;5.50;99.90;;;;;;5565909;25;20525;-75
2024/04/21 00:19:24;;;;;;;0.77;0.20;;;5.60;99.90;;;;;;5566518;25;20455;-75
2024/04/21 00:21:50;;;;;;;0.40;0.20;;;5.50;99.90;;;;;;5567874;25;20435;-74
2024/04/21 00:24:19;;;;;;;0.30;0.10;;;5.40;99.90;;;;;;5566895;25;20471;-75
2024/04/21 00:26:45;;;;;;;0.40;0.30;;;5.40;99.90;;;;;;5567336;25;20463;-75
2024/04/21 00:29:14;;;;;;;0.47;0.17;;;5.40;99.90;;;;;;5567403;25;20533;-75
2024/04/21 00:31:41;;;;;;;0.40;0.20;;;5.30;99.90;;;;;;5562729;25;20555;-75
2024/04/21 00:34:12;;;;;;;0.30;0.10;;;5.30;99.90;;;;;;5567590;25;20447;-75
2024/04/21 00:36:39;;;;;;;0.33;0.20;;;5.30;99.90;;;;;;5561652;25;20772;-74
2024/04/21 00:39:08;;;;;;;0.30;0.10;;;5.20;99.90;;;;;;5567042;25;20792;-74
2024/04/21 00:41:34;;;;;;;0.40;0.10;;;5.20;17.10;;;;;;5567330;25;20463;-75
2024/04/21 00:44:04;;;;;;;0.40;0.20;;;5.10;16.10;;;;;;5562136;25;20472;-74
2024/04/21 00:46:30;;;;;;;0.43;0.20;;;5.10;16.00;;;;;;5566596;25;20463;-75
2024/04/21 00:48:59;;;;;;;0.33;0.10;;;5.30;99.90;;;;;;5566381;25;20567;-75
2024/04/21 00:51:28;;;;;;;1.97;0.30;;;5.30;99.90;;;;;;5567109;25;20530;-75
2024/04/21 00:53:58;;;;;;;0.30;0.10;;;5.20;99.90;;;;;;5570132;25;20463;-75
2024/04/21 00:56:24;;;;;;;0.60;0.20;;;5.20;99.90;;;;;;5570274;25;20513;-75
2024/04/21 00:58:54;;;;;;;0.80;0.20;;;5.30;99.90;;;;;;5569603;25;20450;-75
2024/04/21 01:01:21;;;;;;;0.83;0.10;;;5.40;99.90;;;;;;5569470;25;20435;-75
2024/04/21 01:03:51;;;;;;;0.30;0.10;;;5.50;99.90;;;;;;5569048;25;20941;-75
2024/04/21 01:06:17;;;;;;;0.30;0.10;;;5.60;99.90;;;;;;5568438;25;20513;-75
2024/04/21 01:08:50;;;;;;;0.30;0.10;;;5.60;99.90;;;;;;5569082;25;20769;-75
2024/04/21 01:11:16;;;;;;;0.27;0.10;;;5.50;99.90;;;;;;5569029;25;20446;-74
2024/04/21 01:13:46;;;;;;;0.30;0.10;;;5.60;99.90;;;;;;5569043;25;20454;-74
2024/04/21 01:16:13;;;;;;;0.30;0.10;;;5.50;99.90;;;;;;5569485;25;20544;-75
2024/04/21 01:18:44;;;;;;;0.30;0.10;;;5.50;99.90;;;;;;5569107;25;20443;-75
2024/04/21 01:21:10;;;;;;;0.30;0.10;;;5.40;99.90;;;;;;5569285;25;20525;-75
2024/04/21 01:23:41;;;;;;;0.30;0.10;;;5.30;99.90;;;;;;5568167;25;20458;-75
2024/04/21 01:26:10;;;;;;;0.27;0.10;;;5.30;99.90;;;;;;5568681;25;20463;-75
2024/04/21 01:28:39;;;;;;;0.30;0.10;;;5.30;99.90;;;;;;5568877;25;20519;-75
2024/04/21 01:31:05;;;;;;;0.80;0.20;;;5.30;99.90;;;;;;5568938;25;20435;-74
2024/04/21 01:33:34;;;;;;;0.53;0.10;;;5.30;99.90;;;;;;5563994;25;20454;-75
2024/04/21 01:36:00;;;;;;;0.77;0.10;;;5.20;99.90;;;;;;5565987;25;20592;-74
2024/04/21 01:38:29;;;;;;;0.20;0.10;;;5.30;99.90;;;;;;5567720;25;20514;-73
2024/04/21 01:40:59;;;;;;;0.30;0.10;;;5.40;99.90;;;;;;5563824;25;20478;-73
2024/04/21 01:43:28;;;;;;;0.30;0.10;;;5.40;99.90;;;;;;5568172;25;20443;-74
2024/04/21 01:45:54;;;;;;;0.30;0.10;;;5.40;99.90;;;;;;5569087;25;20446;-74
2024/04/21 01:48:23;;;;;;;0.30;0.10;;;5.40;99.90;;;;;;5569213;25;20517;-73
2024/04/21 01:50:49;;;;;;;0.83;0.20;;;5.40;99.90;;;;;;5568618;25;20940;-74
2024/04/21 01:53:18;;;;;;;0.23;0.10;;;5.50;99.90;;;;;;5569804;25;20470;-73
2024/04/21 01:55:44;;;;;;;0.20;0.10;;;5.60;99.90;;;;;;5570186;25;20451;-74
2024/04/21 01:58:16;;;;;;;1.53;0.20;;;5.50;99.90;;;;;;5568308;25;20778;-73
2024/04/21 02:00:42;;;;;;;0.30;0.10;;;5.70;99.90;;;;;;5569833;25;20455;-73
2024/04/21 02:03:11;;;;;;;0.30;0.10;;;5.60;99.90;;;;;;5569010;25;20476;-73
2024/04/21 02:05:40;;;;;;;0.30;0.10;;;5.60;99.90;;;;;;5569578;25;20892;-73
2024/04/21 02:08:09;;;;;;;0.30;0.10;;;5.60;99.90;;;;;;5564917;25;20470;-73
2024/04/21 02:10:36;;;;;;;0.30;0.10;;;5.70;99.90;;;;;;5566537;25;20475;-75
2024/04/21 02:13:05;;;;;;;0.50;0.13;;;5.70;99.90;;;;;;5568256;25;20444;-74
2024/04/21 02:15:34;;;;;;;0.50;0.20;;;5.80;99.90;;;;;;5559013;25;20503;-73
2024/04/21 02:18:03;;;;;;;0.30;0.10;;;6.00;99.90;;;;;;5567596;25;20531;-73
2024/04/21 02:20:29;;;;;;;0.40;0.10;;;5.90;99.90;;;;;;5561852;25;20468;-74
2024/04/21 02:22:58;;;;;;;0.37;0.20;;;5.80;99.90;;;;;;5531265;25;20468;-72
2024/04/21 02:25:26;;;;;;;0.60;0.10;;;5.80;99.90;;;;;;5522252;25;20515;-74
2024/04/21 02:27:55;;;;;;;0.30;0.20;;;5.70;99.90;;;;;;5531347;25;20516;-75
2024/04/21 02:30:21;;;;;;;0.30;0.10;;;5.70;99.90;;;;;;5512360;25;20460;-74
2024/04/21 02:32:53;;;;;;;1.07;0.10;;;5.80;99.90;;;;;;5531216;25;20518;-74
2024/04/21 02:35:20;;;;;;;0.50;0.10;;;5.80;99.90;;;;;;5513384;25;20456;-73
2024/04/21 02:37:49;;;;;;;0.30;0.10;;;6.10;99.90;;;;;;5530156;25;20793;-73
2024/04/21 02:40:15;;;;;;;0.30;0.10;;;6.00;99.90;;;;;;5530308;25;20533;-74
2024/04/21 02:42:44;;;;;;;0.30;0.20;;;6.10;99.90;;;;;;5531962;25;20517;-74
2024/04/21 02:45:11;;;;;;;0.40;0.13;;;6.10;99.90;;;;;;5517924;26;20588;-74
2024/04/21 02:47:40;;;;;;;2.40;0.20;;;6.10;99.90;;;;;;5530996;25;20732;-74
2024/04/21 02:50:09;;;;;;;0.40;0.20;;;6.20;99.90;;;;;;5530578;25;20524;-73
2024/04/21 02:52:38;;;;;;;0.47;0.20;;;6.00;99.90;;;;;;5531957;25;20527;-74
2024/04/21 02:55:05;;;;;;;0.40;0.20;;;6.00;99.90;;;;;;5529361;25;20787;-73
2024/04/21 02:57:34;;;;;;;1.60;0.20;;;6.00;99.90;;;;;;5530483;25;20532;-72
2024/04/21 03:00:02;;;;;;;2.50;0.30;;;5.90;99.90;;;;;;5519732;25;20527;-72
2024/04/21 03:02:31;;;;;;;0.30;0.20;;;5.80;99.90;;;;;;5530018;26;20472;-73
2024/04/21 03:04:57;;;;;;;0.63;0.10;;;5.60;36.30;;;;;;5526609;25;20461;-72
2024/04/21 03:07:29;;;;;;;0.33;0.20;;;5.50;52.00;;;;;;5531636;25;20492;-72
2024/04/21 03:09:55;;;;;;;0.77;0.27;;;5.50;80.10;;;;;;5531832;25;20518;-73
2024/04/21 03:12:26;;;;;;;1.50;0.20;;;5.50;92.40;;;;;;5530066;25;20477;-73
2024/04/21 03:14:53;;;;;;;0.70;0.30;;;5.50;96.30;;;;;;5525217;26;20488;-73
2024/04/21 03:17:22;;;;;;;0.70;0.30;;;5.50;99.90;;;;;;5528460;25;20525;-72
2024/04/21 03:19:48;;;;;;;0.60;0.30;;;5.60;99.90;;;;;;5524704;26;20460;-73
2024/04/21 03:22:17;;;;;;;0.40;0.30;;;5.60;99.90;;;;;;5515754;26;21076;-73
2024/04/21 03:24:46;;;;;;;0.97;0.20;;;5.60;99.90;;;;;;5526927;25;20575;-73
2024/04/21 03:27:15;;;;;;;0.67;0.30;;;5.60;99.90;;;;;;5523496;25;20490;-72
2024/04/21 03:29:41;;;;;;;0.30;0.20;;;5.50;99.90;;;;;;5521167;25;20513;-72
2024/04/21 03:32:10;;;;;;;0.60;0.40;;;5.50;99.90;;;;;;5530979;25;21001;-72
2024/04/21 03:34:36;;;;;;;0.63;0.40;;;5.40;99.90;;;;;;5529775;25;20452;-72
2024/04/21 03:37:05;;;;;;;0.50;0.40;;;5.20;99.90;;;;;;5522868;25;20469;-71
2024/04/21 03:39:35;;;;;;;7.47;0.40;;;5.10;99.90;;;;;;5531559;25;20457;-71
2024/04/21 03:42:08;;;;;;;0.50;0.30;;;5.00;99.90;;;;;;5522068;25;20989;-72
2024/04/21 03:44:37;;;;;;;0.47;0.20;;;4.80;99.90;;;;;;5529956;25;20496;-72
2024/04/21 03:47:04;;;;;;;0.60;0.30;;;4.70;99.90;;;;;;5525377;25;20796;-72
2024/04/21 03:49:36;;;;;;;0.53;0.20;;;4.60;99.90;;;;;;5530621;25;20465;-71
2024/04/21 03:52:02;;;;;;;1.30;0.30;;;4.50;99.90;;;;;;5520361;25;20732;-72
2024/04/21 03:54:31;;;;;;;0.40;0.20;;;4.60;99.90;;;;;;5529906;25;20507;-73
2024/04/21 03:57:00;;;;;;;0.60;0.30;;;4.50;99.90;;;;;;5517896;25;20452;-72
2024/04/21 03:59:32;;;;;;;0.87;0.33;;;4.50;99.90;;;;;;5530217;25;20512;-73
2024/04/21 04:01:58;;;;;;;0.50;0.30;;;4.50;99.90;;;;;;5528091;25;20929;-74
2024/04/21 04:04:27;;;;;;;0.47;0.20;;;4.50;99.90;;;;;;5530402;25;20476;-72
2024/04/21 04:06:54;;;;;;;1.00;0.30;;;4.40;99.90;;;;;;5530443;25;20970;-73
2024/04/21 04:09:23;;;;;;;0.40;0.20;;;4.50;99.90;;;;;;5522859;25;20429;-73
2024/04/21 04:11:50;;;;;;;0.70;0.30;;;4.40;99.90;;;;;;5517087;25;20507;-73
2024/04/21 04:14:19;;;;;;;0.50;0.20;;;4.40;99.90;;;;;;5520600;25;20464;-73
2024/04/21 04:16:48;;;;;;;0.60;0.37;;;4.60;99.90;;;;;;5523417;25;20540;-73
2024/04/21 04:19:17;;;;;;;0.57;0.30;;;4.60;99.90;;;;;;5524462;25;20579;-74
2024/04/21 04:21:44;;;;;;;0.60;0.40;;;4.80;99.90;;;;;;5524544;25;20505;-73
2024/04/21 04:24:13;;;;;;;0.93;0.40;;;4.80;99.90;;;;;;5524584;25;20511;-73
2024/04/21 04:26:39;;;;;;;1.27;0.30;;;4.80;99.90;;;;;;5496690;25;20503;-74
2024/04/21 04:29:08;;;;;;;0.67;0.40;;;4.70;99.90;;;;;;5532800;25;20829;-72
2024/04/21 04:31:34;;;;;;;0.60;0.23;;;4.60;99.90;;;;;;5534051;25;20567;-73
2024/04/21 04:34:15;;;;;;;5.10;0.40;;;4.60;99.90;;;;;;5535889;25;21070;-72
2024/04/21 04:36:41;;;;;;;0.37;0.27;;;4.70;99.90;;;;;;5527601;25;20905;-73
2024/04/21 04:39:14;;;;;;;0.67;0.33;;;4.50;99.90;;;;;;5527045;25;20476;-73
2024/04/21 04:41:40;;;;;;;0.67;0.30;;;4.40;99.90;;;;;;5531699;25;20425;-73
2024/04/21 04:44:09;;;;;;;0.40;0.20;;;4.50;99.90;;;;;;5526442;25;20558;-73
2024/04/21 04:46:35;;;;;;;0.40;0.20;;;4.40;99.90;;;;;;5532734;25;20882;-72
2024/04/21 04:49:08;;;;;;;0.40;0.20;;;4.40;99.90;;;;;;5527890;25;20556;-73
2024/04/21 04:51:34;;;;;;;0.40;0.20;;;4.30;99.90;;;;;;5537187;25;20460;-73
2024/04/21 04:54:03;;;;;;;0.60;0.20;;;4.60;99.90;;;;;;5526133;25;20460;-73
2024/04/21 04:56:30;;;;;;;0.80;0.20;;;4.60;99.90;;;;;;5529476;25;20460;-73
2024/04/21 04:58:59;;;;;;;1.13;0.20;;;4.60;99.90;;;;;;5529406;25;20929;-73
2024/04/21 05:01:25;;;;;;;0.30;0.10;;;4.70;99.90;;;;;;5531430;25;20568;-74
2024/04/21 05:03:54;;;;;;;0.60;0.20;;;4.80;99.90;;;;;;5520740;25;20469;-73
2024/04/21 05:06:23;;;;;;;0.40;0.20;;;4.80;99.90;;;;;;5532013;25;20531;-73
2024/04/21 05:08:52;;;;;;;0.30;0.20;;;4.80;99.90;;;;;;5530321;25;20472;-74
2024/04/21 05:11:19;;;;;;;0.40;0.20;;;4.80;99.90;;;;;;5531040;25;20469;-74
2024/04/21 05:13:48;;;;;;;0.63;0.20;;;4.70;99.90;;;;;;5526756;25;20515;-74
2024/04/21 05:16:14;;;;;;;1.00;0.40;;;4.70;99.90;;;;;;5530446;25;20524;-74
2024/04/21 05:18:43;;;;;;;1.13;0.20;;;4.70;99.90;;;;;;5523330;25;20604;-74
2024/04/21 05:21:09;;;;;;;1.13;0.30;;;4.80;99.90;;;;;;5531182;25;20472;-74
2024/04/21 05:23:41;;;;;;;0.30;0.10;;;4.80;99.90;;;;;;5528727;25;20468;-74
2024/04/21 05:26:07;;;;;;;1.90;0.20;;;4.70;99.90;;;;;;5528713;25;20464;-74
2024/04/21 05:28:36;;;;;;;0.53;0.30;;;4.70;99.90;;;;;;5525530;25;20456;-74
2024/04/21 05:31:03;;;;;;;0.80;0.30;;;4.70;99.90;;;;;;5525724;25;20484;-74
2024/04/21 05:33:32;;;;;;;0.30;0.10;;;4.70;99.90;;;;;;5531966;25;20504;-74
2024/04/21 05:35:59;;;;;;;0.40;0.20;;;4.70;99.90;;;;;;5532599;25;20478;-74
2024/04/21 05:38:27;;;;;;;0.60;0.20;;;4.70;93.00;;;;;;5533066;25;20507;-75
2024/04/21 05:40:56;;;;;;;0.40;0.20;;;4.70;97.40;;;;;;5525591;25;20441;-74
2024/04/21 05:43:27;;;;;;;0.83;0.30;;;4.70;91.80;;;;;;5529787;25;20448;-74
2024/04/21 05:46:01;;;;;;;0.50;0.30;;;4.70;99.90;;;;;;5524340;25;20507;-74
2024/04/21 05:48:30;;;;;;;0.47;0.20;;;4.70;92.40;;;;;;5526483;25;20959;-74
2024/04/21 05:50:57;;;;;;;0.30;0.20;;;4.70;79.50;;;;;;5532295;26;20881;-74
2024/04/21 05:53:28;;;;;;;0.70;0.30;;;4.70;91.30;;;;;;5532406;25;20540;-75
2024/04/21 05:55:57;;;;;;;0.67;0.40;;;4.70;99.90;;;;;;5526138;25;20599;-75
2024/04/21 05:58:26;;;;;;;0.40;0.20;;;4.70;99.90;;;;;;5525881;25;20976;-75
2024/04/21 06:00:55;;;;;;;2.40;0.10;;;4.70;99.90;;;;;;5523673;25;20982;-75
2024/04/21 06:03:25;;;;;;;0.33;0.13;;;4.70;99.90;;;;;;5532852;25;20890;-75
2024/04/21 06:05:53;;;;;;;3.70;0.30;;;4.80;93.10;;;;;;5522848;25;20598;-76
2024/04/21 06:08:27;;;;;;;2.77;0.50;;;5.00;99.30;;;;;;5529836;25;20464;-75
2024/04/21 06:10:53;;;;;;;0.50;0.20;;;5.00;86.10;;;;;;5528761;25;20460;-75
2024/04/21 06:13:25;;;;;;;1.00;0.20;;;4.70;58.90;;;;;;5532069;25;20870;-75
2024/04/21 06:15:57;;;;;;;0.40;0.20;;;4.70;99.90;;;;;;5525068;25;20471;-74
2024/04/21 06:18:27;;;;;;;0.33;0.20;;;4.90;99.90;;;;;;5521453;25;20453;-74
2024/04/21 06:20:54;;;;;;;0.40;0.20;;;5.10;57.80;;;;;;5539945;25;20463;-74
2024/04/21 06:23:26;;;;;;;0.97;0.20;;;5.20;26.70;;;;;;5567422;25;20463;-74
2024/04/21 06:25:55;;;;;;;0.40;0.10;;;5.30;17.10;;;;;;5565516;25;20487;-74
2024/04/21 06:28:27;;;;;;;0.40;0.20;;;5.30;1.00;;;;;;5559243;25;20483;-74
2024/04/21 06:30:53;;;;;;;0.37;0.20;;;5.30;10.40;;;;;;5561401;25;20587;-74
2024/04/21 06:33:22;;;;;;;0.80;0.40;;;5.30;28.00;;;;;;5554822;25;20449;-75
2024/04/21 06:35:49;;;;;;;1.00;0.30;;;5.30;1.00;;;;;;5555120;25;20944;-75
2024/04/21 06:38:18;;;;;;;1.03;0.30;;;5.20;5.00;;;;;;5555655;25;20475;-74
2024/04/21 06:40:44;;;;;;;0.37;0.20;;;5.20;8.90;;;;;;5566126;25;20538;-74
2024/04/21 06:43:16;;;;;;;0.50;0.20;;;5.10;20.80;;;;;;5554916;25;20475;-74
2024/04/21 06:45:46;;;;;;;0.40;0.20;;;5.10;1.00;;;;;;5550861;25;20467;-74
2024/04/21 06:48:14;;;;;;;2.83;0.27;;;5.10;23.90;;;;;;5546204;25;20437;-74
2024/04/21 06:50:42;;;;;;;5.03;0.60;;;5.00;18.70;;;;;;5550431;25;20458;-75
2024/04/21 06:53:11;;;;;;;0.50;0.30;;;5.00;23.00;;;;;;5562266;25;20467;-75
2024/04/21 06:55:37;;;;;;;1.73;0.20;;;5.00;31.80;;;;;;5567413;25;20463;-74
2024/04/21 06:58:06;;;;;;;0.70;0.20;;;5.00;44.10;;;;;;5561480;25;20471;-74
2024/04/21 07:00:32;;;;;;;4.83;0.70;;;5.00;34.30;;;;;;5567043;25;20463;-74
2024/04/21 07:03:04;;;;;;;0.50;0.30;;;5.10;39.80;;;;;;5550369;25;20464;-74
2024/04/21 07:05:31;;;;;;;0.50;0.30;;;5.20;34.40;;;;;;5534628;25;20953;-75
2024/04/21 07:08:00;;;;;;;0.40;0.20;;;5.30;99.90;;;;;;5557240;25;20475;-75
2024/04/21 07:10:26;;;;;;;0.60;0.20;;;5.20;99.90;;;;;;5564900;25;20918;-75
2024/04/21 07:12:55;;;;;;;0.50;0.20;;;5.10;99.90;;;;;;5563020;25;20459;-74
2024/04/21 07:15:21;;;;;;;0.30;0.20;;;5.20;33.20;;;;;;5531263;25;20505;-75
2024/04/21 07:17:52;;;;;;;0.50;0.30;;;5.30;20.70;;;;;;5558174;25;20476;-74
2024/04/21 07:20:22;;;;;;;0.43;0.30;;;5.40;99.90;;;;;;5528485;25;20869;-72
2024/04/21 07:22:51;;;;;;;1.33;0.30;;;5.50;99.90;;;;;;5560972;25;20471;-73
2024/04/21 07:25:17;;;;;;;0.70;0.40;;;5.50;99.90;;;;;;5563258;25;20996;-72
2024/04/21 07:27:46;;;;;;;8.63;0.30;;;5.50;99.90;;;;;;5565570;25;20463;-74
2024/04/21 07:30:12;;;;;;;0.53;0.20;;;5.50;99.90;;;;;;5562590;25;20523;-72
2024/04/21 07:32:41;;;;;;;1.90;0.30;;;5.50;99.90;;;;;;5563289;25;20534;-74
2024/04/21 07:35:08;;;;;;;4.10;0.27;;;5.40;99.90;;;;;;5542975;25;20468;-73
2024/04/21 07:37:39;;;;;;;0.40;0.20;;;5.40;1.00;;;;;;5529919;25;20477;-73
2024/04/21 07:40:07;;;;;;;0.73;0.30;;;5.70;99.90;;;;;;5564655;25;20505;-74
2024/04/21 07:42:35;;;;;;;2.10;0.23;;;5.70;99.90;;;;;;5564013;25;20510;-73
2024/04/21 07:45:02;;;;;;;0.40;0.20;;;5.60;99.90;;;;;;5532697;25;20927;-73
2024/04/21 07:47:31;;;;;;;0.40;0.20;;;5.70;99.90;;;;;;5564812;25;20883;-73
2024/04/21 07:49:58;;;;;;;0.47;0.20;;;5.80;99.90;;;;;;5564633;25;20467;-73
2024/04/21 07:52:27;;;;;;;0.30;0.20;;;6.00;99.90;;;;;;5562765;25;20512;-73
2024/04/21 07:54:58;;;;;;;0.70;0.30;;;6.10;99.90;;;;;;5558089;25;20820;-73
2024/04/21 07:57:27;;;;;;;0.57;0.20;;;6.20;99.90;;;;;;5563006;25;21327;-73
2024/04/21 07:59:53;;;;;;;0.53;0.30;;;6.40;99.90;;;;;;5563144;25;20952;-73
2024/04/21 08:02:24;;;;;;;1.10;0.33;;;6.50;99.90;;;;;;5561932;25;20884;-71
2024/04/21 08:04:51;;;;;;;0.40;0.20;;;6.60;99.90;;;;;;5565682;25;20470;-73
2024/04/21 08:07:20;;;;;;;0.47;0.20;;;6.60;99.90;;;;;;5566015;25;20495;-73
2024/04/21 08:09:46;;;;;;;0.30;0.10;;;6.60;99.90;;;;;;5559793;25;20876;-74
2024/04/21 08:12:19;;;;;;;2.40;0.30;;;6.60;99.90;;;;;;5566613;25;20709;-71
2024/04/21 08:14:45;;;;;;;0.40;0.20;;;6.50;99.90;;;;;;5567785;25;20750;-73
2024/04/21 08:17:13;;;;;;;2.30;0.20;;;6.40;99.90;;;;;;5535000;25;20451;-74
2024/04/21 08:19:40;;;;;;;0.73;0.20;;;6.40;99.90;;;;;;5568147;25;20483;-73
2024/04/21 08:22:09;;;;;;;0.60;0.23;;;6.40;99.90;;;;;;5567793;25;20523;-73
2024/04/21 08:24:36;;;;;;;1.03;0.30;;;6.40;99.90;;;;;;5567999;25;20552;-73
2024/04/21 08:27:05;;;;;;;0.70;0.30;;;6.20;99.90;;;;;;5567419;25;20458;-73
2024/04/21 08:29:34;;;;;;;0.60;0.20;;;6.10;99.90;;;;;;5565415;25;20725;-73
2024/04/21 08:32:03;;;;;;;0.50;0.40;;;6.10;99.90;;;;;;5565959;25;20462;-73
2024/04/21 08:34:29;;;;;;;0.60;0.30;;;6.10;99.90;;;;;;5566548;25;20444;-73
2024/04/21 08:36:58;;;;;;;0.30;0.20;;;6.10;99.90;;;;;;5566845;25;20819;-73
2024/04/21 08:39:24;;;;;;;1.80;0.20;;;6.30;99.90;;;;;;5565898;25;20467;-73
2024/04/21 08:41:53;;;;;;;0.50;0.20;;;6.40;99.90;;;;;;5562632;25;20517;-73
2024/04/21 08:44:23;;;;;;;0.43;0.20;;;6.50;99.90;;;;;;5564451;25;21021;-74
2024/04/21 08:46:54;;;;;;;0.80;0.20;;;6.60;99.90;;;;;;5565120;25;20511;-75
2024/04/21 08:49:22;;;;;;;1.57;0.30;;;6.80;99.90;;;;;;5564704;25;20439;-74
2024/04/21 08:51:52;;;;;;;0.40;0.10;;;6.90;99.90;;;;;;5563455;25;20706;-75
2024/04/21 08:54:18;;;;;;;0.57;0.20;;;6.90;99.90;;;;;;5561535;25;20987;-74
2024/04/21 08:56:49;;;;;;;0.30;0.20;;;6.90;99.90;;;;;;5563522;25;20741;-76
2024/04/21 08:59:16;;;;;;;0.67;0.10;;;7.10;99.90;;;;;;5562294;25;20535;-75
2024/04/21 09:01:45;;;;;;;0.50;0.20;;;7.20;99.90;;;;;;5562639;25;20463;-75
2024/04/21 09:04:17;;;;;;;0.37;0.10;;;7.40;99.90;;;;;;5522825;25;20888;-76
2024/04/21 09:06:47;;;;;;;0.40;0.20;;;7.20;99.90;;;;;;5561876;25;20502;-75
2024/04/21 09:09:13;;;;;;;0.50;0.23;;;7.20;99.90;;;;;;5560150;25;20510;-76
2024/04/21 09:11:43;;;;;;;0.50;0.30;;;7.00;99.90;;;;;;5559571;25;20483;-75
2024/04/21 09:14:11;;;;;;;0.40;0.20;;;6.90;99.90;;;;;;5563411;25;20478;-74
2024/04/21 09:16:40;;;;;;;0.33;0.17;;;6.80;99.90;;;;;;5562496;25;20547;-75
2024/04/21 09:19:06;;;;;;;0.50;0.30;;;6.70;99.90;;;;;;5565528;25;20443;-74
2024/04/21 09:21:38;;;;;;;0.50;0.37;;;6.80;99.90;;;;;;5567258;25;20880;-76
2024/04/21 09:24:05;;;;;;;0.40;0.20;;;6.80;99.90;;;;;;5562538;25;20546;-77
2024/04/21 09:26:37;;;;;;;0.60;0.37;;;6.80;99.90;;;;;;5563121;25;20510;-76
2024/04/21 09:29:03;;;;;;;2.50;0.40;;;6.90;99.90;;;;;;5565436;25;21096;-75
2024/04/21 09:31:33;;;;;;;0.30;0.20;;;7.00;99.90;;;;;;5567164;25;20731;-75
2024/04/21 09:33:59;;;;;;;1.53;0.10;;;6.90;99.90;;;;;;5564498;25;20447;-75
2024/04/21 09:36:31;;;;;;;0.50;0.20;;;6.70;99.90;;;;;;5555462;25;20575;-76
2024/04/21 09:39:05;;;;;;;0.40;0.30;;;6.80;99.90;;;;;;5494880;26;20454;-77
2024/04/21 09:41:33;;;;;;;0.30;0.20;;;7.10;99.90;;;;;;5508367;26;20504;-74
2024/04/21 09:44:08;;;;;;;0.77;0.30;;;7.30;99.90;;;;;;5526804;26;20531;-76
2024/04/21 09:46:34;;;;;;;2.37;0.20;;;7.60;99.90;;;;;;5530234;26;20960;-76
2024/04/21 09:49:05;;;;;;;0.53;0.27;;;7.80;99.90;;;;;;5528963;26;20556;-75
2024/04/21 09:51:32;;;;;;;0.90;0.20;;;7.90;99.90;;;;;;5529688;26;20562;-75
2024/04/21 09:54:06;;;;;;;1.27;0.20;;;7.70;99.90;;;;;;5515088;26;20843;-75
2024/04/21 09:56:38;;;;;;;0.40;0.30;;;7.70;99.90;;;;;;5527931;26;20530;-76
2024/04/21 09:59:12;;;;;;;0.40;0.20;;;7.50;99.90;;;;;;5524551;26;20484;-76
2024/04/21 10:01:40;;;;;;;1.83;0.20;;;7.60;99.90;;;;;;5530369;25;20728;-76
2024/04/21 10:04:18;;;;;;;0.30;0.20;;;7.70;99.90;;;;;;5532854;25;20444;-76
2024/04/21 10:06:51;;;;;;;0.40;0.20;;;7.80;99.90;;;;;;5518680;26;20517;-76
2024/04/21 10:09:24;;;;;;;0.60;0.30;;;7.90;99.90;;;;;;5527614;26;20519;-75
2024/04/21 10:11:50;;;;;;;0.40;0.20;;;8.00;99.90;;;;;;5526304;26;20894;-76
2024/04/21 10:14:20;;;;;;;0.33;0.20;;;8.20;99.90;;;;;;5492995;26;20572;-76
2024/04/21 10:16:49;;;;;;;1.23;0.30;;;8.20;99.90;;;;;;5513957;26;20474;-76
2024/04/21 10:19:27;;;;;;;0.50;0.20;;;8.40;99.90;;;;;;5517136;26;20559;-77
2024/04/21 10:21:53;;;;;;;0.40;0.13;;;8.80;99.90;;;;;;5515796;26;20511;-77
2024/04/21 10:24:26;;;;;;;0.53;0.30;;;9.20;99.90;;;;;;5516741;26;20465;-77
2024/04/21 10:27:01;;;;;;;0.30;0.20;;;9.60;99.90;;;;;;5516647;26;20941;-76
2024/04/21 10:29:30;;;;;;;0.93;0.20;;;9.70;99.90;;;;;;5517643;26;20472;-76
2024/04/21 10:32:11;;;;;;;0.67;0.30;;;9.60;99.90;;;;;;5490601;26;20470;-76
2024/04/21 10:34:46;;;;;;;0.30;0.10;;;9.30;99.90;;;;;;5491258;26;20545;-76
2024/04/21 10:37:13;;;;;;;0.40;0.20;;;9.10;99.90;;;;;;5509094;26;20504;-75
2024/04/21 10:39:48;;;;;;;0.40;0.10;;;8.90;99.90;;;;;;5524376;26;20465;-76
2024/04/21 10:42:15;;;;;;;1.00;0.20;;;9.10;99.90;;;;;;5522521;26;20548;-76
2024/04/21 10:44:44;;;;;;;0.33;0.20;;;9.20;99.90;;;;;;5528181;26;20476;-75
2024/04/21 10:47:11;;;;;;;0.30;0.10;;;9.40;99.90;;;;;;5523280;26;20833;-76
2024/04/21 10:49:40;;;;;;;0.50;0.20;;;9.60;99.90;;;;;;5529387;26;20452;-75
2024/04/21 10:52:07;;;;;;;0.43;0.20;;;9.40;99.90;;;;;;5522464;26;20524;-76
2024/04/21 10:54:36;;;;;;;0.57;0.27;;;9.40;99.90;;;;;;5528918;26;20771;-75
2024/04/21 10:57:10;;;;;;;0.30;0.10;;;10.10;99.90;;;;;;5524998;26;20603;-76
2024/04/21 10:59:39;;;;;;;0.30;0.10;;;10.80;99.90;;;;;;5528610;26;20521;-75
2024/04/21 11:02:05;;;;;;;0.40;0.20;;;11.30;99.90;;;;;;5514151;26;20959;-75
2024/04/21 11:04:36;;;;;;;0.50;0.20;;;11.70;99.90;;;;;;5523793;26;20580;-77
2024/04/21 11:07:02;;;;;;;0.40;0.20;;;11.70;99.90;;;;;;5521478;26;20472;-76
2024/04/21 11:09:31;;;;;;;0.37;0.20;;;11.70;99.90;;;;;;5525074;26;20897;-74
2024/04/21 11:11:58;;;;;;;1.07;0.30;;;11.60;99.90;;;;;;5506313;26;20603;-76
2024/04/21 11:14:32;;;;;;;0.40;0.30;;;10.90;99.90;;;;;;5526638;26;20983;-77
2024/04/21 11:16:58;;;;;;;0.70;0.30;;;10.80;99.90;;;;;;5525440;26;20468;-76
2024/04/21 11:19:29;;;;;;;1.60;0.20;;;10.50;99.90;;;;;;5526290;26;20568;-76
2024/04/21 11:21:55;;;;;;;1.33;0.20;;;10.20;99.90;;;;;;5526117;26;20480;-76
2024/04/21 11:24:26;;;;;;;0.80;0.20;;;10.00;99.90;;;;;;5526024;26;20531;-76
2024/04/21 11:26:52;;;;;;;1.07;0.20;;;9.80;99.90;;;;;;5495875;26;20889;-76
2024/04/21 11:29:24;;;;;;;1.13;0.30;;;9.60;99.90;;;;;;5529347;26;20496;-77
2024/04/21 11:31:53;;;;;;;0.37;0.20;;;9.30;99.90;;;;;;5520038;26;20452;-76
2024/04/21 11:34:24;;;;;;;0.63;0.27;;;9.20;99.90;;;;;;5530081;26;20461;-75
2024/04/21 11:36:51;;;;;;;0.50;0.20;;;9.30;99.90;;;;;;5519902;25;20470;-77
2024/04/21 11:39:24;;;;;;;0.47;0.30;;;9.40;99.90;;;;;;5525087;25;20461;-75
2024/04/21 11:41:50;;;;;;;0.57;0.30;;;9.40;99.90;;;;;;5528479;26;20452;-77
2024/04/21 11:44:20;;;;;;;0.40;0.20;;;9.60;99.90;;;;;;5525669;26;20480;-77
2024/04/21 11:46:48;;;;;;;0.50;0.30;;;9.60;99.90;;;;;;5523426;26;20519;-76
2024/04/21 11:49:20;;;;;;;0.60;0.20;;;9.90;99.90;;;;;;5523115;26;20472;-76
2024/04/21 11:51:46;;;;;;;1.70;0.30;;;9.90;99.90;;;;;;5526503;26;20476;-76
2024/04/21 11:54:16;;;;;;;0.50;0.20;;;9.70;99.90;;;;;;5528376;26;20494;-76
2024/04/21 11:56:42;;;;;;;1.27;0.20;;;10.00;99.90;;;;;;5528040;26;20453;-76
2024/04/21 11:59:11;;;;;;;5.60;0.30;;;10.00;99.90;;;;;;5548888;25;20968;-75
2024/04/21 12:01:40;;;;;;;0.50;0.20;;;9.70;99.90;;;;;;5531595;25;20469;-75
2024/04/21 12:04:06;;;;;;;0.40;0.20;;;9.90;99.90;;;;;;5527009;26;20445;-76
2024/04/21 12:06:41;;;;;;;1.27;0.33;;;10.20;99.90;;;;;;5525402;25;20542;-75
2024/04/21 12:09:08;;;;;;;0.40;0.20;;;10.20;99.90;;;;;;5523617;26;21025;-76
2024/04/21 12:11:38;;;;;;;0.60;0.30;;;9.90;99.90;;;;;;5518956;26;20506;-76
2024/04/21 12:14:26;;;;;;;0.40;0.20;;;9.70;99.90;;;;;;5523049;26;20543;-75
2024/04/21 12:16:58;;;;;;;0.30;0.17;;;9.40;99.90;;;;;;5522870;26;20929;-75
2024/04/21 12:19:25;;;;;;;0.47;0.20;;;9.10;99.90;;;;;;5524365;26;21030;-75
2024/04/21 12:21:57;;;;;;;3.10;0.20;;;9.10;99.90;;;;;;5525394;26;20573;-77
2024/04/21 12:24:23;;;;;;;3.30;0.23;;;9.10;99.90;;;;;;5524535;26;20850;-76
2024/04/21 12:26:52;;;;;;;0.37;0.20;;;9.10;99.90;;;;;;5525963;26;20440;-76
2024/04/21 12:29:20;;;;;;;0.47;0.20;;;9.10;99.90;;;;;;5527648;26;20866;-75
2024/04/21 12:31:50;;;;;;;0.40;0.20;;;9.00;99.90;;;;;;5525188;25;20464;-77
2024/04/21 12:34:17;;;;;;;1.77;0.20;;;9.00;99.90;;;;;;5523343;26;20480;-77
2024/04/21 12:36:45;;;;;;;0.90;0.17;;;9.00;99.90;;;;;;5527835;26;20476;-76
2024/04/21 12:39:14;;;;;;;0.40;0.20;;;8.90;99.90;;;;;;5528156;26;20838;-76
2024/04/21 12:41:43;;;;;;;0.60;0.20;;;9.10;99.90;;;;;;5526874;26;20618;-76
2024/04/21 12:44:09;;;;;;;0.40;0.20;;;9.20;99.90;;;;;;5527616;25;20444;-76
2024/04/21 12:46:40;;;;;;;0.53;0.30;;;9.50;99.90;;;;;;5524447;26;20448;-76
2024/04/21 12:49:06;;;;;;;0.50;0.20;;;9.90;99.90;;;;;;5528198;26;20464;-76
2024/04/21 12:51:36;;;;;;;0.53;0.27;;;10.10;99.90;;;;;;5528130;26;20509;-76
2024/04/21 12:54:02;;;;;;;0.40;0.20;;;10.30;99.90;;;;;;5498913;25;20540;-76
2024/04/21 12:56:36;;;;;;;0.50;0.20;;;10.50;99.90;;;;;;5520560;26;20481;-76
2024/04/21 12:59:02;;;;;;;2.20;0.20;;;10.70;99.90;;;;;;5511800;26;20475;-76
2024/04/21 13:01:31;;;;;;;0.97;0.30;;;10.80;99.90;;;;;;5526592;26;20460;-76
2024/04/21 13:03:58;;;;;;;0.60;0.20;;;10.90;99.90;;;;;;5529431;26;20552;-77